sensor_id;sensor_type;location;lat;lon;timestamp;pressure;altitude;pressure_sealevel;temperature;humidity
49541;BME280;35432;43.566;1.398;2023-02-02T00:36:52;101605.31;;;5.41;73.10
49541;BME280;35432;43.566;1.398;2023-02-02T00:39:20;101612.41;;;5.43;73.07
49541;BME280;35432;43.566;1.398;2023-02-02T00:41:46;101613.28;;;5.44;72.89
49541;BME280;35432;43.566;1.398;2023-02-02T00:44:12;101607.28;;;5.46;72.93
49541;BME280;35432;43.566;1.398;2023-02-02T00:46:56;101609.06;;;5.48;73.28
49541;BME280;35432;43.566;1.398;2023-02-02T00:49:22;101612.63;;;5.50;72.63
49541;BME280;35432;43.566;1.398;2023-02-02T00:51:47;101613.50;;;5.50;72.92
49541;BME280;35432;43.566;1.398;2023-02-02T00:54:13;101615.28;;;5.51;73.33
49541;BME280;35432;43.566;1.398;2023-02-02T00:56:39;101620.59;;;5.53;72.85
49541;BME280;35432;43.566;1.398;2023-02-02T00:59:04;101613.69;;;5.55;73.03
49541;BME280;35432;43.566;1.398;2023-02-02T01:01:30;101613.75;;;5.56;73.31
49541;BME280;35432;43.566;1.398;2023-02-02T01:03:55;101605.09;;;5.57;73.03
49541;BME280;35432;43.566;1.398;2023-02-02T01:06:21;101609.53;;;5.60;73.14
49541;BME280;35432;43.566;1.398;2023-02-02T01:08:46;101615.66;;;5.60;73.03
49541;BME280;35432;43.566;1.398;2023-02-02T01:11:12;101612.13;;;5.60;72.70
49541;BME280;35432;43.566;1.398;2023-02-02T01:13:37;101607.75;;;5.59;73.23
49541;BME280;35432;43.566;1.398;2023-02-02T01:16:03;101612.97;;;5.59;72.95
49541;BME280;35432;43.566;1.398;2023-02-02T01:18:29;101618.19;;;5.59;72.70
49541;BME280;35432;43.566;1.398;2023-02-02T01:20:59;101612.94;;;5.57;72.81
49541;BME280;35432;43.566;1.398;2023-02-02T01:23:26;101615.53;;;5.57;72.77
49541;BME280;35432;43.566;1.398;2023-02-02T01:25:56;101621.63;;;5.58;73.12
49541;BME280;35432;43.566;1.398;2023-02-02T01:28:22;101614.63;;;5.57;72.87
49541;BME280;35432;43.566;1.398;2023-02-02T01:30:48;101609.41;;;5.57;73.12
49541;BME280;35432;43.566;1.398;2023-02-02T01:33:14;101609.38;;;5.55;72.75
49541;BME280;35432;43.566;1.398;2023-02-02T01:35:48;101605.75;;;5.52;72.75
49541;BME280;35432;43.566;1.398;2023-02-02T01:38:14;101607.41;;;5.50;72.46
49541;BME280;35432;43.566;1.398;2023-02-02T01:40:51;101595.16;;;5.49;72.71
49541;BME280;35432;43.566;1.398;2023-02-02T01:43:24;101603.00;;;5.49;72.60
49541;BME280;35432;43.566;1.398;2023-02-02T01:45:51;101605.63;;;5.49;72.75
49541;BME280;35432;43.566;1.398;2023-02-02T01:48:20;101603.84;;;5.48;72.89
49541;BME280;35432;43.566;1.398;2023-02-02T01:50:49;101598.63;;;5.48;72.96
49541;BME280;35432;43.566;1.398;2023-02-02T01:53:17;101600.13;;;5.42;72.92
49541;BME280;35432;43.566;1.398;2023-02-02T01:55:44;101596.56;;;5.40;72.79
49541;BME280;35432;43.566;1.398;2023-02-02T01:58:16;101604.38;;;5.39;72.56
49541;BME280;35432;43.566;1.398;2023-02-02T02:00:42;101601.75;;;5.39;73.22
49541;BME280;35432;43.566;1.398;2023-02-02T02:03:12;101589.47;;;5.36;73.05
49541;BME280;35432;43.566;1.398;2023-02-02T02:05:44;101599.78;;;5.33;72.40
49541;BME280;35432;43.566;1.398;2023-02-02T02:08:22;101599.66;;;5.30;73.13
49541;BME280;35432;43.566;1.398;2023-02-02T02:10:48;101596.03;;;5.26;72.75
49541;BME280;35432;43.566;1.398;2023-02-02T02:13:15;101595.75;;;5.19;72.98
49541;BME280;35432;43.566;1.398;2023-02-02T02:15:54;101594.50;;;5.09;72.47
49541;BME280;35432;43.566;1.398;2023-02-02T02:30:32;101579.03;;;4.50;72.35
49541;BME280;35432;43.566;1.398;2023-02-02T02:41:36;101557.63;;;4.16;73.19
49541;BME280;35432;43.566;1.398;2023-02-02T02:44:08;101553.13;;;4.12;73.13
49541;BME280;35432;43.566;1.398;2023-02-02T02:46:35;101541.63;;;4.07;73.29
49541;BME280;35432;43.566;1.398;2023-02-02T02:49:02;101542.31;;;4.02;73.18
49541;BME280;35432;43.566;1.398;2023-02-02T02:54:24;101554.78;;;3.90;72.50
49541;BME280;35432;43.566;1.398;2023-02-02T02:59:36;101546.56;;;3.81;73.32
49541;BME280;35432;43.566;1.398;2023-02-02T03:02:26;101548.84;;;3.73;72.69
49541;BME280;35432;43.566;1.398;2023-02-02T03:08:23;101547.25;;;3.57;72.52
49541;BME280;35432;43.566;1.398;2023-02-02T03:10:51;101546.97;;;3.51;73.02
49541;BME280;35432;43.566;1.398;2023-02-02T03:13:17;101552.78;;;3.45;72.59
49541;BME280;35432;43.566;1.398;2023-02-02T03:15:43;101553.34;;;3.38;73.01
49541;BME280;35432;43.566;1.398;2023-02-02T03:18:11;101549.56;;;3.31;72.75
49541;BME280;35432;43.566;1.398;2023-02-02T03:20:38;101543.16;;;3.24;72.90
49541;BME280;35432;43.566;1.398;2023-02-02T03:23:03;101552.38;;;3.18;73.10
49541;BME280;35432;43.566;1.398;2023-02-02T03:25:29;101558.19;;;3.12;72.54
49541;BME280;35432;43.566;1.398;2023-02-02T03:27:54;101562.25;;;3.05;72.56
49541;BME280;35432;43.566;1.398;2023-02-02T03:30:21;101567.22;;;3.00;72.30
49541;BME280;35432;43.566;1.398;2023-02-02T03:32:46;101565.19;;;2.95;72.39
49541;BME280;35432;43.566;1.398;2023-02-02T03:35:12;101563.19;;;2.89;73.02
49541;BME280;35432;43.566;1.398;2023-02-02T03:37:38;101561.19;;;2.83;73.07
49541;BME280;35432;43.566;1.398;2023-02-02T03:40:04;101567.97;;;2.80;73.28
49541;BME280;35432;43.566;1.398;2023-02-02T03:42:30;101565.22;;;2.77;72.54
49541;BME280;35432;43.566;1.398;2023-02-02T03:44:55;101566.75;;;2.73;72.97
49541;BME280;35432;43.566;1.398;2023-02-02T03:47:21;101553.59;;;2.70;72.72
49541;BME280;35432;43.566;1.398;2023-02-02T03:49:46;101557.03;;;2.69;72.80
49541;BME280;35432;43.566;1.398;2023-02-02T03:52:11;101560.59;;;2.71;72.98
49541;BME280;35432;43.566;1.398;2023-02-02T03:54:37;101555.38;;;2.71;72.94
49541;BME280;35432;43.566;1.398;2023-02-02T03:57:02;101557.16;;;2.72;72.97
49541;BME280;35432;43.566;1.398;2023-02-02T03:59:28;101558.13;;;2.74;73.03
49541;BME280;35432;43.566;1.398;2023-02-02T04:01:53;101551.25;;;2.75;74.08
49541;BME280;35432;43.566;1.398;2023-02-02T04:04:19;101559.03;;;2.75;73.89
49541;BME280;35432;43.566;1.398;2023-02-02T04:06:44;101557.25;;;2.73;73.23
49541;BME280;35432;43.566;1.398;2023-02-02T04:09:09;101555.38;;;2.71;72.93
49541;BME280;35432;43.566;1.398;2023-02-02T04:11:35;101558.75;;;2.68;73.62
49541;BME280;35432;43.566;1.398;2023-02-02T04:14:00;101558.66;;;2.67;73.72
49541;BME280;35432;43.566;1.398;2023-02-02T04:16:26;101572.63;;;2.69;73.90
49541;BME280;35432;43.566;1.398;2023-02-02T04:18:51;101567.56;;;2.72;73.69
49541;BME280;35432;43.566;1.398;2023-02-02T04:21:17;101576.50;;;2.77;73.83
49541;BME280;35432;43.566;1.398;2023-02-02T04:23:42;101575.03;;;2.82;73.95
49541;BME280;35432;43.566;1.398;2023-02-02T04:26:07;101571.00;;;2.89;74.06
49541;BME280;35432;43.566;1.398;2023-02-02T04:28:33;101583.41;;;2.95;74.15
49541;BME280;35432;43.566;1.398;2023-02-02T04:30:59;101574.94;;;2.99;74.31
49541;BME280;35432;43.566;1.398;2023-02-02T04:33:26;101575.91;;;3.01;74.32
49541;BME280;35432;43.566;1.398;2023-02-02T04:35:52;101588.19;;;3.04;74.48
49541;BME280;35432;43.566;1.398;2023-02-02T04:38:18;101591.84;;;3.07;74.27
49541;BME280;35432;43.566;1.398;2023-02-02T04:40:45;101595.53;;;3.12;74.40
49541;BME280;35432;43.566;1.398;2023-02-02T04:43:11;101602.66;;;3.16;74.00
49541;BME280;35432;43.566;1.398;2023-02-02T04:45:37;101605.56;;;3.23;74.13
49541;BME280;35432;43.566;1.398;2023-02-02T04:48:03;101591.06;;;3.28;74.57
49541;BME280;35432;43.566;1.398;2023-02-02T04:50:30;101593.00;;;3.32;74.03
49541;BME280;35432;43.566;1.398;2023-02-02T04:52:56;101603.56;;;3.35;74.46
49541;BME280;35432;43.566;1.398;2023-02-02T04:55:21;101601.09;;;3.38;74.04
49541;BME280;35432;43.566;1.398;2023-02-02T04:57:47;101602.97;;;3.41;74.50
49541;BME280;35432;43.566;1.398;2023-02-02T05:00:12;101601.38;;;3.44;74.35
49541;BME280;35432;43.566;1.398;2023-02-02T05:02:39;101601.50;;;3.48;74.83
49541;BME280;35432;43.566;1.398;2023-02-02T05:05:07;101600.84;;;3.52;74.32
49541;BME280;35432;43.566;1.398;2023-02-02T05:07:33;101601.97;;;3.57;74.72
49541;BME280;35432;43.566;1.398;2023-02-02T05:09:58;101608.19;;;3.61;74.41
49541;BME280;35432;43.566;1.398;2023-02-02T05:12:24;101604.16;;;3.67;74.51
49541;BME280;35432;43.566;1.398;2023-02-02T05:14:49;101604.28;;;3.70;74.29
49541;BME280;35432;43.566;1.398;2023-02-02T05:17:15;101595.00;;;3.76;74.44
49541;BME280;35432;43.566;1.398;2023-02-02T05:19:40;101598.56;;;3.78;74.39
49541;BME280;35432;43.566;1.398;2023-02-02T05:22:06;101600.47;;;3.82;74.59
49541;BME280;35432;43.566;1.398;2023-02-02T05:24:32;101602.38;;;3.86;74.45
49541;BME280;35432;43.566;1.398;2023-02-02T05:26:57;101606.91;;;3.90;74.69
49541;BME280;35432;43.566;1.398;2023-02-02T05:29:25;101614.84;;;3.93;74.66
49541;BME280;35432;43.566;1.398;2023-02-02T05:31:52;101617.56;;;3.95;74.56
49541;BME280;35432;43.566;1.398;2023-02-02T05:34:17;101611.56;;;3.97;74.73
49541;BME280;35432;43.566;1.398;2023-02-02T05:36:43;101611.72;;;4.00;74.75
49541;BME280;35432;43.566;1.398;2023-02-02T05:39:08;101606.56;;;4.02;74.77
49541;BME280;35432;43.566;1.398;2023-02-02T05:41:34;101607.53;;;4.04;74.69
49541;BME280;35432;43.566;1.398;2023-02-02T05:44:00;101616.31;;;4.06;74.71
49541;BME280;35432;43.566;1.398;2023-02-02T05:46:25;101615.56;;;4.09;74.34
49541;BME280;35432;43.566;1.398;2023-02-02T05:48:51;101613.09;;;4.12;74.42
49541;BME280;35432;43.566;1.398;2023-02-02T05:51:28;101613.16;;;4.13;74.36
49541;BME280;35432;43.566;1.398;2023-02-02T05:53:56;101615.94;;;4.18;74.33
49541;BME280;35432;43.566;1.398;2023-02-02T05:56:21;101610.81;;;4.20;74.17
49541;BME280;35432;43.566;1.398;2023-02-02T05:58:46;101619.50;;;4.20;74.45
49541;BME280;35432;43.566;1.398;2023-02-02T06:01:14;101622.13;;;4.20;74.69
49541;BME280;35432;43.566;1.398;2023-02-02T06:03:40;101623.91;;;4.21;74.25
49541;BME280;35432;43.566;1.398;2023-02-02T06:06:06;101620.50;;;4.22;74.40
49541;BME280;35432;43.566;1.398;2023-02-02T06:08:31;101625.72;;;4.22;74.52
49541;BME280;35432;43.566;1.398;2023-02-02T06:10:56;101615.34;;;4.24;74.34
49541;BME280;35432;43.566;1.398;2023-02-02T06:13:22;101626.66;;;4.24;74.58
49541;BME280;35432;43.566;1.398;2023-02-02T06:15:47;101619.59;;;4.22;74.49
49541;BME280;35432;43.566;1.398;2023-02-02T06:18:13;101625.63;;;4.21;74.48
49541;BME280;35432;43.566;1.398;2023-02-02T06:20:38;101623.78;;;4.18;74.61
49541;BME280;35432;43.566;1.398;2023-02-02T06:23:04;101631.59;;;4.18;74.78
49541;BME280;35432;43.566;1.398;2023-02-02T06:25:30;101624.59;;;4.17;74.61
49541;BME280;35432;43.566;1.398;2023-02-02T06:27:59;101635.03;;;4.17;74.37
49541;BME280;35432;43.566;1.398;2023-02-02T06:30:25;101635.03;;;4.17;74.15
49541;BME280;35432;43.566;1.398;2023-02-02T06:32:52;101633.38;;;4.19;74.69
49541;BME280;35432;43.566;1.398;2023-02-02T06:35:17;101638.53;;;4.18;74.56
49541;BME280;35432;43.566;1.398;2023-02-02T06:37:42;101640.38;;;4.20;74.36
49541;BME280;35432;43.566;1.398;2023-02-02T06:40:09;101638.75;;;4.22;74.79
49541;BME280;35432;43.566;1.398;2023-02-02T06:42:34;101637.09;;;4.24;74.30
49541;BME280;35432;43.566;1.398;2023-02-02T06:45:00;101635.44;;;4.26;74.66
49541;BME280;35432;43.566;1.398;2023-02-02T06:47:26;101637.22;;;4.27;74.67
49541;BME280;35432;43.566;1.398;2023-02-02T06:49:51;101630.22;;;4.26;74.56
49541;BME280;35432;43.566;1.398;2023-02-02T06:52:17;101638.88;;;4.25;74.72
49541;BME280;35432;43.566;1.398;2023-02-02T06:54:42;101638.88;;;4.25;74.71
49541;BME280;35432;43.566;1.398;2023-02-02T06:57:07;101633.53;;;4.22;74.62
49541;BME280;35432;43.566;1.398;2023-02-02T06:59:33;101634.28;;;4.20;74.62
49541;BME280;35432;43.566;1.398;2023-02-02T07:01:59;101635.94;;;4.18;74.69
49541;BME280;35432;43.566;1.398;2023-02-02T07:04:24;101633.09;;;4.13;74.66
49541;BME280;35432;43.566;1.398;2023-02-02T07:06:50;101645.19;;;4.11;74.60
49541;BME280;35432;43.566;1.398;2023-02-02T07:09:15;101646.84;;;4.09;74.77
49541;BME280;35432;43.566;1.398;2023-02-02T07:11:41;101646.75;;;4.07;74.71
49541;BME280;35432;43.566;1.398;2023-02-02T07:14:06;101651.00;;;4.05;74.67
49541;BME280;35432;43.566;1.398;2023-02-02T07:16:32;101650.13;;;4.05;74.13
49541;BME280;35432;43.566;1.398;2023-02-02T07:18:57;101657.88;;;4.03;74.19
49541;BME280;35432;43.566;1.398;2023-02-02T07:21:25;101651.78;;;4.02;74.31
49541;BME280;35432;43.566;1.398;2023-02-02T07:23:52;101663.16;;;4.05;74.14
49541;BME280;35432;43.566;1.398;2023-02-02T07:26:18;101655.34;;;4.05;73.94
49541;BME280;35432;43.566;1.398;2023-02-02T07:28:45;101658.91;;;4.07;74.06
49541;BME280;35432;43.566;1.398;2023-02-02T07:31:16;101657.97;;;4.05;73.75
49541;BME280;35432;43.566;1.398;2023-02-02T07:33:42;101657.00;;;4.02;74.06
49541;BME280;35432;43.566;1.398;2023-02-02T07:36:09;101659.59;;;4.02;74.18
49541;BME280;35432;43.566;1.398;2023-02-02T07:38:35;101662.22;;;4.02;74.27
49541;BME280;35432;43.566;1.398;2023-02-02T07:41:01;101670.06;;;4.04;74.00
49541;BME280;35432;43.566;1.398;2023-02-02T07:43:26;101679.75;;;4.07;74.10
49541;BME280;35432;43.566;1.398;2023-02-02T07:45:52;101679.16;;;4.12;73.81
49541;BME280;35432;43.566;1.398;2023-02-02T07:48:17;101675.09;;;4.19;73.57
49541;BME280;35432;43.566;1.398;2023-02-02T07:50:43;101671.97;;;4.26;73.79
49541;BME280;35432;43.566;1.398;2023-02-02T07:53:08;101680.13;;;4.34;73.24
49541;BME280;35432;43.566;1.398;2023-02-02T07:55:33;101684.91;;;4.44;73.50
49541;BME280;35432;43.566;1.398;2023-02-02T07:57:59;101688.03;;;4.57;73.72
49541;BME280;35432;43.566;1.398;2023-02-02T08:00:26;101684.25;;;4.70;73.52
49541;BME280;35432;43.566;1.398;2023-02-02T08:02:51;101679.78;;;4.87;73.32
49541;BME280;35432;43.566;1.398;2023-02-02T08:05:18;101687.66;;;5.10;72.90
49541;BME280;35432;43.566;1.398;2023-02-02T08:07:44;101687.06;;;5.38;72.47
49541;BME280;35432;43.566;1.398;2023-02-02T08:10:10;101686.88;;;5.78;72.36
49541;BME280;35432;43.566;1.398;2023-02-02T08:12:35;101685.50;;;6.35;71.50
49541;BME280;35432;43.566;1.398;2023-02-02T08:15:01;101682.31;;;7.20;70.94
49541;BME280;35432;43.566;1.398;2023-02-02T08:17:26;101672.88;;;8.44;70.01
49541;BME280;35432;43.566;1.398;2023-02-02T08:19:52;101661.91;;;10.09;68.63
49541;BME280;35432;43.566;1.398;2023-02-02T08:22:17;101662.22;;;11.82;66.41
49541;BME280;35432;43.566;1.398;2023-02-02T08:24:42;101660.34;;;13.44;63.71
49541;BME280;35432;43.566;1.398;2023-02-02T08:27:08;101650.28;;;14.90;61.29
49541;BME280;35432;43.566;1.398;2023-02-02T08:29:35;101644.66;;;16.21;58.98
49541;BME280;35432;43.566;1.398;2023-02-02T08:32:02;101647.34;;;17.38;56.99
49541;BME280;35432;43.566;1.398;2023-02-02T08:34:27;101631.84;;;18.45;54.97
49541;BME280;35432;43.566;1.398;2023-02-02T08:36:53;101629.47;;;19.34;53.47
49541;BME280;35432;43.566;1.398;2023-02-02T08:39:18;101631.44;;;20.14;51.72
49541;BME280;35432;43.566;1.398;2023-02-02T08:41:44;101629.50;;;20.98;50.91
49541;BME280;35432;43.566;1.398;2023-02-02T08:44:13;101620.31;;;21.73;49.16
49541;BME280;35432;43.566;1.398;2023-02-02T08:46:39;101626.31;;;22.42;47.71
49541;BME280;35432;43.566;1.398;2023-02-02T08:49:05;101621.66;;;23.02;46.74
49541;BME280;35432;43.566;1.398;2023-02-02T08:51:30;101623.97;;;23.64;45.70
49541;BME280;35432;43.566;1.398;2023-02-02T08:53:56;101619.28;;;24.17;44.88
49541;BME280;35432;43.566;1.398;2023-02-02T08:56:22;101624.38;;;24.69;44.38
49541;BME280;35432;43.566;1.398;2023-02-02T08:58:50;101630.56;;;25.14;43.33
49541;BME280;35432;43.566;1.398;2023-02-02T09:01:19;101631.38;;;25.58;42.36
49541;BME280;35432;43.566;1.398;2023-02-02T09:03:45;101631.94;;;26.04;41.87
49541;BME280;35432;43.566;1.398;2023-02-02T09:06:14;101636.41;;;26.44;41.35
49541;BME280;35432;43.566;1.398;2023-02-02T09:08:40;101623.88;;;26.78;40.33
49541;BME280;35432;43.566;1.398;2023-02-02T09:11:08;101630.59;;;27.06;40.13
49541;BME280;35432;43.566;1.398;2023-02-02T09:13:35;101632.72;;;27.34;39.71
49541;BME280;35432;43.566;1.398;2023-02-02T09:16:02;101635.53;;;27.67;39.32
49541;BME280;35432;43.566;1.398;2023-02-02T09:18:28;101644.84;;;27.94;38.95
49541;BME280;35432;43.566;1.398;2023-02-02T09:20:54;101641.66;;;28.20;38.64
49541;BME280;35432;43.566;1.398;2023-02-02T09:23:19;101637.56;;;28.45;38.27
49541;BME280;35432;43.566;1.398;2023-02-02T09:25:45;101634.63;;;28.80;37.79
49541;BME280;35432;43.566;1.398;2023-02-02T09:28:11;101644.94;;;29.04;37.57
49541;BME280;35432;43.566;1.398;2023-02-02T09:30:37;101642.66;;;29.27;37.29
49541;BME280;35432;43.566;1.398;2023-02-02T09:33:03;101637.88;;;29.46;36.92
49541;BME280;35432;43.566;1.398;2023-02-02T09:35:28;101641.19;;;29.66;36.55
49541;BME280;35432;43.566;1.398;2023-02-02T09:37:54;101645.06;;;29.91;36.40
49541;BME280;35432;43.566;1.398;2023-02-02T09:40:19;101642.44;;;30.18;36.61
49541;BME280;35432;43.566;1.398;2023-02-02T09:45:47;101646.63;;;30.79;35.78
49541;BME280;35432;43.566;1.398;2023-02-02T09:51:18;101649.53;;;31.29;34.94
49541;BME280;35432;43.566;1.398;2023-02-02T09:53:55;101648.56;;;31.43;34.02
49541;BME280;35432;43.566;1.398;2023-02-02T09:56:26;101649.00;;;31.50;34.06
49541;BME280;35432;43.566;1.398;2023-02-02T09:58:55;101644.53;;;31.62;34.36
49541;BME280;35432;43.566;1.398;2023-02-02T10:01:26;101646.47;;;31.86;34.22
49541;BME280;35432;43.566;1.398;2023-02-02T10:04:05;101643.63;;;32.00;33.04
49541;BME280;35432;43.566;1.398;2023-02-02T10:14:40;101653.78;;;31.98;29.66
49541;BME280;35432;43.566;1.398;2023-02-02T10:20:04;101654.84;;;31.18;32.54
49541;BME280;35432;43.566;1.398;2023-02-02T10:22:36;101655.16;;;31.13;33.48
49541;BME280;35432;43.566;1.398;2023-02-02T10:25:02;101654.66;;;31.21;33.81
49541;BME280;35432;43.566;1.398;2023-02-02T10:27:38;101663.41;;;30.44;30.14
49541;BME280;35432;43.566;1.398;2023-02-02T10:30:26;101661.25;;;30.07;32.54
49541;BME280;35432;43.566;1.398;2023-02-02T10:33:05;101667.56;;;30.07;27.33
49541;BME280;35432;43.566;1.398;2023-02-02T10:36:20;101676.69;;;30.06;32.42
49541;BME280;35432;43.566;1.398;2023-02-02T10:38:49;101673.16;;;30.33;32.54
49541;BME280;35432;43.566;1.398;2023-02-02T10:41:35;101652.63;;;30.15;33.47
49541;BME280;35432;43.566;1.398;2023-02-02T10:44:35;101670.66;;;29.72;32.43
49541;BME280;35432;43.566;1.398;2023-02-02T10:46:59;101667.56;;;29.64;34.27
49541;BME280;35432;43.566;1.398;2023-02-02T10:49:32;101667.97;;;29.58;31.72
49541;BME280;35432;43.566;1.398;2023-02-02T10:57:38;101655.72;;;29.50;30.69
49541;BME280;35432;43.566;1.398;2023-02-02T11:00:31;101663.31;;;29.60;31.97
49541;BME280;35432;43.566;1.398;2023-02-02T11:02:59;101654.91;;;29.34;33.99
49541;BME280;35432;43.566;1.398;2023-02-02T11:05:29;101655.41;;;28.96;34.09
49541;BME280;35432;43.566;1.398;2023-02-02T11:08:24;101648.00;;;28.67;31.57
49541;BME280;35432;43.566;1.398;2023-02-02T11:10:54;101637.53;;;28.61;35.17
49541;BME280;35432;43.566;1.398;2023-02-02T11:13:32;101638.94;;;28.52;33.10
49541;BME280;35432;43.566;1.398;2023-02-02T11:18:38;101633.75;;;27.99;36.60
49541;BME280;35432;43.566;1.398;2023-02-02T11:21:17;101635.88;;;27.43;35.90
49541;BME280;35432;43.566;1.398;2023-02-02T11:23:54;101632.31;;;26.72;34.58
49541;BME280;35432;43.566;1.398;2023-02-02T11:26:22;101642.78;;;25.84;38.56
49541;BME280;35432;43.566;1.398;2023-02-02T11:28:48;101633.75;;;25.24;39.57
49541;BME280;35432;43.566;1.398;2023-02-02T11:31:36;101633.75;;;24.59;39.40
49541;BME280;35432;43.566;1.398;2023-02-02T11:34:17;101635.44;;;23.93;30.71
49541;BME280;35432;43.566;1.398;2023-02-02T11:37:01;101631.44;;;23.56;37.73
49541;BME280;35432;43.566;1.398;2023-02-02T11:39:27;101628.06;;;23.23;43.14
49541;BME280;35432;43.566;1.398;2023-02-02T11:42:19;101631.22;;;22.57;39.02
49541;BME280;35432;43.566;1.398;2023-02-02T11:44:58;101628.09;;;22.13;38.04
49541;BME280;35432;43.566;1.398;2023-02-02T11:49:52;101631.97;;;21.72;44.70
49541;BME280;35432;43.566;1.398;2023-02-02T11:52:24;101634.81;;;21.33;42.98
49541;BME280;35432;43.566;1.398;2023-02-02T11:54:52;101620.59;;;20.96;46.07
49541;BME280;35432;43.566;1.398;2023-02-02T11:57:24;101621.00;;;20.43;42.68
49541;BME280;35432;43.566;1.398;2023-02-02T12:00:25;101622.97;;;19.95;39.52
49541;BME280;35432;43.566;1.398;2023-02-02T12:02:51;101624.72;;;19.50;48.33
49541;BME280;35432;43.566;1.398;2023-02-02T12:07:45;101612.78;;;18.68;49.15
49541;BME280;35432;43.566;1.398;2023-02-02T12:15:46;101594.03;;;18.16;46.46
49541;BME280;35432;43.566;1.398;2023-02-02T12:21:06;101604.09;;;17.91;46.65
49541;BME280;35432;43.566;1.398;2023-02-02T12:31:40;101592.34;;;17.34;51.65
49541;BME280;35432;43.566;1.398;2023-02-02T12:37:07;101580.09;;;17.17;47.31
49541;BME280;35432;43.566;1.398;2023-02-02T13:02:07;101551.91;;;15.70;46.40
49541;BME280;35432;43.566;1.398;2023-02-02T13:07:42;101551.16;;;15.35;49.91
49541;BME280;35432;43.566;1.398;2023-02-02T13:10:17;101560.03;;;15.21;51.26
49541;BME280;35432;43.566;1.398;2023-02-02T13:12:52;101559.19;;;15.13;52.05
49541;BME280;35432;43.566;1.398;2023-02-02T13:15:21;101554.75;;;15.06;54.67
49541;BME280;35432;43.566;1.398;2023-02-02T13:17:53;101545.91;;;15.01;53.07
49541;BME280;35432;43.566;1.398;2023-02-02T13:20:43;101541.50;;;14.97;51.05
49541;BME280;35432;43.566;1.398;2023-02-02T13:25:53;101545.06;;;14.82;53.13
49541;BME280;35432;43.566;1.398;2023-02-02T13:28:33;101534.47;;;14.83;50.33
49541;BME280;35432;43.566;1.398;2023-02-02T13:31:04;101529.16;;;14.92;54.84
49541;BME280;35432;43.566;1.398;2023-02-02T13:33:33;101523.81;;;15.02;55.51
49541;BME280;35432;43.566;1.398;2023-02-02T13:36:03;101523.84;;;15.00;54.42
49541;BME280;35432;43.566;1.398;2023-02-02T13:38:30;101522.97;;;14.90;54.59
49541;BME280;35432;43.566;1.398;2023-02-02T13:40:59;101529.16;;;14.82;54.90
49541;BME280;35432;43.566;1.398;2023-02-02T13:43:57;101527.38;;;14.63;45.57
49541;BME280;35432;43.566;1.398;2023-02-02T13:49:18;101522.09;;;14.48;54.37
49541;BME280;35432;43.566;1.398;2023-02-02T13:59:54;101519.41;;;14.20;48.38
49541;BME280;35432;43.566;1.398;2023-02-02T14:05:05;101526.50;;;14.21;56.77
49541;BME280;35432;43.566;1.398;2023-02-02T14:07:41;101523.84;;;14.21;54.10
49541;BME280;35432;43.566;1.398;2023-02-02T14:10:24;101524.69;;;14.04;49.52
49541;BME280;35432;43.566;1.398;2023-02-02T14:12:51;101527.34;;;14.04;56.73
49541;BME280;35432;43.566;1.398;2023-02-02T14:15:17;101529.97;;;14.07;56.87
49541;BME280;35432;43.566;1.398;2023-02-02T14:23:49;101531.78;;;14.10;51.72
49541;BME280;35432;43.566;1.398;2023-02-02T14:26:38;101531.78;;;14.16;55.31
49541;BME280;35432;43.566;1.398;2023-02-02T14:34:53;101536.19;;;14.08;55.62
49541;BME280;35432;43.566;1.398;2023-02-02T14:45:47;101541.44;;;13.88;57.44
49541;BME280;35432;43.566;1.398;2023-02-02T14:48:19;101545.81;;;13.76;54.67
49541;BME280;35432;43.566;1.398;2023-02-02T14:50:51;101541.38;;;13.74;55.54
49541;BME280;35432;43.566;1.398;2023-02-02T14:53:24;101542.28;;;13.74;57.30
49541;BME280;35432;43.566;1.398;2023-02-02T14:56:10;101542.25;;;13.71;53.96
49541;BME280;35432;43.566;1.398;2023-02-02T14:58:44;101544.91;;;13.73;57.25
49541;BME280;35432;43.566;1.398;2023-02-02T15:25:31;101552.50;;;13.04;55.83
49541;BME280;35432;43.566;1.398;2023-02-02T15:30:33;101556.78;;;12.90;59.74
49541;BME280;35432;43.566;1.398;2023-02-02T15:33:06;101553.22;;;12.83;58.82
49541;BME280;35432;43.566;1.398;2023-02-02T15:35:37;101555.88;;;12.82;60.33
49541;BME280;35432;43.566;1.398;2023-02-02T15:38:06;101552.28;;;12.76;59.82
49541;BME280;35432;43.566;1.398;2023-02-02T15:40:36;101569.88;;;12.71;59.90
49541;BME280;35432;43.566;1.398;2023-02-02T15:43:04;101562.75;;;12.62;59.96
49541;BME280;35432;43.566;1.398;2023-02-02T15:45:35;101555.66;;;12.57;60.16
49541;BME280;35432;43.566;1.398;2023-02-02T15:50:43;101566.16;;;12.49;58.86
49541;BME280;35432;43.566;1.398;2023-02-02T15:53:17;101569.63;;;12.43;58.27
49541;BME280;35432;43.566;1.398;2023-02-02T15:55:43;101566.97;;;12.42;60.89
49541;BME280;35432;43.566;1.398;2023-02-02T16:03:26;101567.69;;;12.27;60.67
49541;BME280;35432;43.566;1.398;2023-02-02T16:05:55;101562.41;;;12.25;61.21
49541;BME280;35432;43.566;1.398;2023-02-02T16:08:29;101566.78;;;12.20;57.48
49541;BME280;35432;43.566;1.398;2023-02-02T16:11:14;101571.97;;;12.14;56.98
49541;BME280;35432;43.566;1.398;2023-02-02T16:13:43;101566.66;;;12.11;61.44
49541;BME280;35432;43.566;1.398;2023-02-02T16:16:23;101570.13;;;12.05;57.66
49541;BME280;35432;43.566;1.398;2023-02-02T16:21:27;101572.72;;;12.02;61.75
49541;BME280;35432;43.566;1.398;2023-02-02T16:23:54;101568.19;;;11.93;61.75
49541;BME280;35432;43.566;1.398;2023-02-02T16:26:24;101566.38;;;11.87;61.08
49541;BME280;35432;43.566;1.398;2023-02-02T16:28:52;101576.00;;;11.84;61.87
49541;BME280;35432;43.566;1.398;2023-02-02T16:31:17;101572.44;;;11.78;61.95
49541;BME280;35432;43.566;1.398;2023-02-02T16:33:43;101575.06;;;11.75;62.56
49541;BME280;35432;43.566;1.398;2023-02-02T16:36:23;101582.81;;;11.66;58.10
49541;BME280;35432;43.566;1.398;2023-02-02T16:38:50;101577.50;;;11.63;62.74